Alghero, Italy

9:37 PM CEST on August 22, 2014 (GMT +0200)
Fertilia | Change Station
CLOSE
Current Station
Airport
Location: Alghero,
Elevation: 75 ft
Nearby Weather Stations

Elev 75 ft 40.63 °N, 8.29 °E | Updated 17 minutes ago

Clear
Clear
73 °F
Feels Like 73 °F
N
8
Wind Variable Wind from NE

Today
High -- | Low -- °F
--% Chance of Precip.
Yesterday
High -- | Low -- °F
Precip. -- in
6:43 AM 8:14 PM
Waning Crescent, 7% visible
Pressure 30.01 in
Visibility -9999.0 miles
Clouds
Dew Point 64 °F
Humidity 73%
Rainfall 0.00 in
Snow Depth Not available.
UV Not available.
Pollen Not available.
Air Quality Not available.
Flu Activity Not available.
METAR LIEA 221920Z 05007KT CAVOK 23/18 Q1016

More Conditions Fewer Conditions

Pressure 30.01 in
Visibility -9999.0 miles
Clouds
Dew Point 64 °F
Humidity 73%
Rainfall 0.00 in
Snow Depth Not available.
UV Not available.
Pollen Not available.
Air Quality Not available.
Flu Activity Not available.
METAR LIEA 221920Z 05007KT CAVOK 23/18 Q1016

More Conditions Fewer Conditions

10-Day Weather Forecast

Almanac

Astronomy

Aug. 22, 2014 Rise Set
Actual Time 6:43 AM CEST 8:14 PM CEST
Civil Twilight 6:15 AM CEST 8:43 PM CEST
Nautical Twilight 5:40 AM CEST 9:18 PM CEST
Astronomical Twilight 5:03 AM CEST 9:54 PM CEST
Moon 3:51 AM CEST 6:13 PM CEST
Length Of Visible Light 14h 28m
Length of Day
13h 30m
Tomorrow will be 2m 29s shorter.
Waning Crescent, 7% of the Moon is Illuminated
Today
Waning Crescent
Aug 25
New
Sep 2
First Quarter
Sep 8
Full
Sep 15
Last Quarter

Today's Extremes

Country Highs Country Lows

Community

WunderPhotos

Upload Photos

1,746,226 photos uploaded!

Nearby

Snow Depth

Not available.

Earthquake Activity

City Distance Mag. Time & Date
No recent earthquake activity has been reported nearby.
Minimum magnitude displayed is 2.5.

Coastal Water Temperatures

Place Temperature
No Stations Reporting

Nearby Weather Stations